SEKCJA WYDRUKÓW, pokaż »

METAR EPBY 280630Z 36004KT 9999 OVC026 M02/M05 Q1026=

METAR EPGD 280630Z 15002KT 9999 BKN025 M02/M05 Q1025 =

METAR EPKK 280630Z 03006KT 9999 SCT017 BKN026 M01/M05 Q1022 =

METAR EPKT 280630Z 02006KT 9999 OVC024 M02/M06 Q1022 =

METAR EPLB 280630Z 01004KT 9999 OVC024 M01/M03 Q1023 =

METAR EPLL 280630Z 01005KT 4600 -FZDZ BR OVC003 M01/M01 Q1023 =

METAR EPML 280630Z NIL=

METAR EPMO 280630Z 36004KT 320V030 5000 BR BKN005 OVC020 M00/M00
Q1024 =

METAR EPPO 280630Z 03005KT 9999 OVC025 M02/M06 Q1026 =

METAR EPRA 280630Z NIL=

METAR EPRZ 280630Z 03010KT 9999 OVC016 M02/M05 Q1021 =

METAR EPSC 280630Z VRB01KT 9999 OVC029 M00/M03 Q1026 =

METAR EPSY 280630Z 36004KT 9999 BKN024 M02/M02 Q1024=

METAR EPWA 280630Z 03006KT 9999 FEW009 BKN026 00/M01 Q1023 NOSIG=

METAR EPWR 280630Z 01007KT 7000 OVC005 M01/M02 Q1025 =

METAR EPZG 280630Z VRB02KT 9999 OVC024 M02/M03 Q1027 =
 METAR EPKT
Lokalizacja:EPKT Katowice Pyrzowice
Czas:06:30 UTC
Średni kierunek wiatru:20 °
Średnia prędkość wiatru:6 węzłów
Widzialność:10 km i więcej
Pierwsza warstwa chmur:8/8, wysokość podstawy 2400 FT
Temperatura powietrza:-2 °C
Temperatura punktu rosy:-6 °C
Ciśnienie QNH:1022 hPa